Time;durP1;ratioP1;P1;durP2;ratioP2;P2;SDS_P1;SDS_P2;PMS_P1;PMS_P2;Temp;Humidity;BMP_temperature;BMP_pressure;BME280_temperature;BME280_humidity;BME280_pressure;Samples;Min_cycle;Max_cycle;Signal;HPM_P1;HPM_P2
2021/05/14 00:00:36;;;;;;;;;;;;;;;20.98;55.75;99957.22;2087256;28;4038;-38
2021/05/14 00:01:37;;;;;;;;;;;;;;;20.97;55.62;99957.59;2087253;28;3931;-36
2021/05/14 00:02:39;;;;;;;;;;;;;;;20.97;55.60;99949.06;2087754;28;3872;-36
2021/05/14 00:03:40;;;;;;;;;;;;;;;20.97;55.66;99961.25;2086715;28;3890;-36
2021/05/14 00:04:41;;;;;;;;;;;;;;;20.98;55.59;99953.53;2087526;28;4039;-29
2021/05/14 00:05:43;;;;;;;;;;;;;;;20.97;55.54;99949.06;2087930;28;3901;-32
2021/05/14 00:06:44;;;;;;;;;;;;;;;20.97;55.63;99952.72;2087715;28;4082;-32
2021/05/14 00:07:45;;;;;;;;;;;;;;;20.98;55.60;99956.38;2087153;28;3950;-37
2021/05/14 00:08:46;;;;;;;;;;;;;;;20.97;55.61;99947.03;2089353;28;4083;-31
2021/05/14 00:09:47;;;;;;;;;;;;;;;20.99;55.62;99956.00;2088918;28;4031;-34
2021/05/14 00:10:50;;;;;;;;;;;;;;;20.98;55.50;99950.69;2089089;28;3985;-35
2021/05/14 00:11:51;;;;;;;;;;;;;;;20.98;55.44;99947.84;2088734;28;3887;-34
2021/05/14 00:12:53;;;;;;;;;;;;;;;20.98;55.40;99956.38;2088006;28;3880;-33
2021/05/14 00:13:58;;;;;;;;;;;;;;;20.97;55.55;99952.72;2088536;28;3892;-36
2021/05/14 00:15:00;;;;;;;;;;;;;;;20.97;55.45;99949.06;2089332;28;4007;-31
2021/05/14 00:16:01;;;;;;;;;;;;;;;20.96;55.44;99948.25;2089313;28;3858;-38
2021/05/14 00:17:02;;;;;;;;;;;;;;;20.96;55.47;99942.56;2089274;28;4012;-34
2021/05/14 00:18:04;;;;;;;;;;;;;;;20.97;55.51;99943.38;2088432;28;4096;-33
2021/05/14 00:19:06;;;;;;;;;;;;;;;20.98;55.40;99945.00;2088852;28;4008;-34
2021/05/14 00:20:07;;;;;;;;;;;;;;;20.97;55.49;99947.03;2089244;28;3975;-34
2021/05/14 00:21:08;;;;;;;;;;;;;;;20.97;55.55;99938.50;2089176;28;3994;-37
2021/05/14 00:22:10;;;;;;;;;;;;;;;20.97;55.46;99946.22;2088566;28;4010;-33
2021/05/14 00:23:12;;;;;;;;;;;;;;;20.98;55.57;99939.31;2088071;28;3870;-33
2021/05/14 00:24:13;;;;;;;;;;;;;;;20.97;55.43;99943.38;2088012;28;6382;-33
2021/05/14 00:25:14;;;;;;;;;;;;;;;20.98;55.40;99947.84;2088807;28;4060;-33
2021/05/14 00:26:15;;;;;;;;;;;;;;;20.97;55.39;99944.19;2088969;28;4046;-35
2021/05/14 00:27:16;;;;;;;;;;;;;;;20.97;55.37;99937.69;2089604;28;4020;-33
2021/05/14 00:28:18;;;;;;;;;;;;;;;20.97;55.43;99947.03;2088936;28;4047;-35
2021/05/14 00:29:19;;;;;;;;;;;;;;;20.97;55.57;99938.50;2088948;28;4040;-33
2021/05/14 00:30:20;;;;;;;;;;;;;;;20.97;55.51;99940.53;2089355;28;4229;-34
2021/05/14 00:31:21;;;;;;;;;;;;;;;20.96;55.53;99950.25;2088724;28;4190;-38
2021/05/14 00:32:23;;;;;;;;;;;;;;;20.96;55.46;99934.03;2089337;28;4239;-37
2021/05/14 00:33:24;;;;;;;;;;;;;;;20.96;55.36;99936.88;2088843;28;4015;-32
2021/05/14 00:34:25;;;;;;;;;;;;;;;20.96;55.60;99939.72;2089057;28;4180;-33
2021/05/14 00:35:27;;;;;;;;;;;;;;;20.97;55.54;99937.69;2088781;28;4053;-33
2021/05/14 00:36:28;;;;;;;;;;;;;;;20.96;55.41;99938.88;2089183;28;4041;-35
2021/05/14 00:37:29;;;;;;;;;;;;;;;20.97;55.44;99937.69;2089057;28;4047;-36
2021/05/14 00:38:30;;;;;;;;;;;;;;;20.96;55.49;99939.72;2088784;28;4040;-34
2021/05/14 00:39:31;;;;;;;;;;;;;;;20.96;55.49;99936.88;2089120;28;3859;-33
2021/05/14 00:40:33;;;;;;;;;;;;;;;20.97;55.38;99937.69;2089339;28;4064;-42
2021/05/14 00:41:34;;;;;;;;;;;;;;;20.96;55.39;99939.72;2089053;28;4156;-31
2021/05/14 00:42:35;;;;;;;;;;;;;;;20.98;55.47;99945.00;2088118;28;3885;-34
2021/05/14 00:43:36;;;;;;;;;;;;;;;20.96;55.28;99936.88;2089362;28;4086;-33
2021/05/14 00:44:38;;;;;;;;;;;;;;;20.97;55.33;99940.53;2088947;28;3907;-35
2021/05/14 00:45:39;;;;;;;;;;;;;;;20.97;55.43;99943.38;2088258;28;4062;-34
2021/05/14 00:46:40;;;;;;;;;;;;;;;20.96;55.42;99942.56;2089129;28;4059;-35
2021/05/14 00:47:41;;;;;;;;;;;;;;;20.96;55.54;99931.19;2088522;28;3992;-35
2021/05/14 00:48:43;;;;;;;;;;;;;;;20.96;55.47;99938.88;2088786;28;3890;-34
2021/05/14 00:49:44;;;;;;;;;;;;;;;20.96;55.43;99939.72;2089202;28;4053;-37
2021/05/14 00:50:46;;;;;;;;;;;;;;;20.97;55.29;99940.53;2089273;28;3902;-34
2021/05/14 00:51:47;;;;;;;;;;;;;;;20.95;55.53;99943.75;2088801;28;3860;-37
2021/05/14 00:52:49;;;;;;;;;;;;;;;20.96;55.30;99951.06;2088829;28;4071;-32
2021/05/14 00:53:50;;;;;;;;;;;;;;;20.96;55.47;99947.41;2088141;28;4037;-36
2021/05/14 00:54:52;;;;;;;;;;;;;;;20.96;55.29;99942.56;2089412;28;3851;-32
2021/05/14 00:55:53;;;;;;;;;;;;;;;20.95;55.30;99943.75;2088733;28;4020;-39
2021/05/14 00:56:55;;;;;;;;;;;;;;;20.96;55.47;99953.09;2089274;28;3831;-36
2021/05/14 00:57:56;;;;;;;;;;;;;;;20.96;55.37;99941.72;2088147;28;3912;-34
2021/05/14 00:58:57;;;;;;;;;;;;;;;20.95;55.47;99942.91;2089090;28;3971;-34
2021/05/14 00:59:58;;;;;;;;;;;;;;;20.97;55.35;99943.38;2088900;28;3976;-33
2021/05/14 01:00:59;;;;;;;;;;;;;;;20.97;55.33;99941.34;2089418;28;4044;-31
2021/05/14 01:02:01;;;;;;;;;;;;;;;20.97;55.40;99946.22;2089122;28;3897;-36
2021/05/14 01:03:03;;;;;;;;;;;;;;;20.97;55.50;99949.88;2087918;28;3999;-35
2021/05/14 01:04:04;;;;;;;;;;;;;;;20.97;55.27;99949.06;2087424;28;3868;-33
2021/05/14 01:05:06;;;;;;;;;;;;;;;20.96;55.54;99948.25;2089185;28;4921;-33
2021/05/14 01:06:07;;;;;;;;;;;;;;;20.96;55.35;99945.41;2089234;28;3837;-35
2021/05/14 01:07:08;;;;;;;;;;;;;;;20.96;55.28;99945.41;2088467;28;4022;-34
2021/05/14 01:08:09;;;;;;;;;;;;;;;20.96;55.40;99945.41;2088794;28;3810;-35
2021/05/14 01:09:10;;;;;;;;;;;;;;;20.97;55.43;99943.38;2088326;28;4184;-35
2021/05/14 01:10:12;;;;;;;;;;;;;;;20.97;55.52;99946.22;2088474;28;4873;-36
2021/05/14 01:11:13;;;;;;;;;;;;;;;20.97;55.29;99944.19;2089462;28;3883;-32
2021/05/14 01:12:14;;;;;;;;;;;;;;;20.97;55.20;99946.22;2088224;28;3896;-35
2021/05/14 01:13:15;;;;;;;;;;;;;;;20.97;55.44;99940.53;2088801;28;3898;-35
2021/05/14 01:14:17;;;;;;;;;;;;;;;20.97;55.27;99943.38;2088937;28;3865;-35
2021/05/14 01:15:18;;;;;;;;;;;;;;;20.97;55.29;99943.38;2088713;28;4056;-35
2021/05/14 01:16:19;;;;;;;;;;;;;;;20.96;55.25;99938.88;2089253;28;3901;-35
2021/05/14 01:17:20;;;;;;;;;;;;;;;20.97;55.32;99940.53;2078919;28;4136;-32
2021/05/14 01:18:22;;;;;;;;;;;;;;;20.96;55.28;99936.88;2093059;28;4000;-36
2021/05/14 01:19:23;;;;;;;;;;;;;;;20.96;55.17;99936.88;2095083;28;3910;-36
2021/05/14 01:20:24;;;;;;;;;;;;;;;20.96;55.30;99941.72;2088746;28;3890;-32
2021/05/14 01:21:25;;;;;;;;;;;;;;;20.97;55.28;99938.50;2089157;28;3885;-35
2021/05/14 01:22:28;;;;;;;;;;;;;;;20.97;55.28;99940.53;2088153;28;4134;-37
2021/05/14 01:23:29;;;;;;;;;;;;;;;20.97;55.39;99935.66;2089467;28;4028;-35
2021/05/14 01:24:31;;;;;;;;;;;;;;;20.97;55.32;99935.66;2087981;28;4535;-32
2021/05/14 01:25:32;;;;;;;;;;;;;;;20.96;55.27;99931.19;2088989;28;4004;-34
2021/05/14 01:26:33;;;;;;;;;;;;;;;20.97;55.23;99937.69;2087003;28;4066;-34
2021/05/14 01:27:35;;;;;;;;;;;;;;;20.96;55.20;99936.03;2086609;28;3859;-36
2021/05/14 01:28:36;;;;;;;;;;;;;;;20.97;55.23;99935.66;2086681;28;4060;-36
2021/05/14 01:29:37;;;;;;;;;;;;;;;20.96;55.29;99934.03;2086689;28;4009;-34
2021/05/14 01:30:38;;;;;;;;;;;;;;;20.96;55.28;99936.88;2085335;28;4370;-39
2021/05/14 01:31:40;;;;;;;;;;;;;;;20.96;55.26;99936.88;2086592;28;3946;-38
2021/05/14 01:32:41;;;;;;;;;;;;;;;20.97;55.29;99943.38;2088153;28;3977;-36
2021/05/14 01:33:42;;;;;;;;;;;;;;;20.96;55.27;99936.88;2088889;28;4031;-33
2021/05/14 01:34:43;;;;;;;;;;;;;;;20.96;55.27;99934.03;2088858;28;4008;-37
2021/05/14 01:35:45;;;;;;;;;;;;;;;20.95;55.25;99929.53;2088223;28;4029;-37
2021/05/14 01:36:46;;;;;;;;;;;;;;;20.96;55.18;99931.19;2088519;28;4020;-34
2021/05/14 01:37:47;;;;;;;;;;;;;;;20.97;55.16;99932.00;2088519;28;4081;-38
2021/05/14 01:38:48;;;;;;;;;;;;;;;20.96;55.23;99930.38;2088588;28;3980;-34
2021/05/14 01:39:50;;;;;;;;;;;;;;;20.96;55.30;99930.38;2087865;28;3898;-35
2021/05/14 01:40:51;;;;;;;;;;;;;;;20.96;55.16;99922.66;2088405;28;3826;-33
2021/05/14 01:41:52;;;;;;;;;;;;;;;20.96;55.14;99931.19;2088176;28;3987;-32
2021/05/14 01:42:54;;;;;;;;;;;;;;;20.96;55.19;99928.34;2087900;28;3893;-37
2021/05/14 01:43:55;;;;;;;;;;;;;;;20.95;55.25;99926.69;2088716;28;4051;-36
2021/05/14 01:44:56;;;;;;;;;;;;;;;20.95;55.08;99921.00;2088718;28;3871;-34
2021/05/14 01:45:58;;;;;;;;;;;;;;;20.95;55.13;99923.84;2087413;28;4010;-37
2021/05/14 01:46:59;;;;;;;;;;;;;;;20.96;55.12;99927.50;2088233;28;4038;-34
2021/05/14 01:48:00;;;;;;;;;;;;;;;20.96;55.24;99928.34;2087243;28;3969;-33
2021/05/14 01:49:02;;;;;;;;;;;;;;;20.96;55.15;99919.81;2088223;28;4024;-33
2021/05/14 01:50:03;;;;;;;;;;;;;;;20.96;55.32;99931.19;2088717;28;4010;-33
2021/05/14 01:51:04;;;;;;;;;;;;;;;20.96;55.04;99921.84;2087866;28;4034;-31
2021/05/14 01:52:06;;;;;;;;;;;;;;;20.97;55.16;99932.81;2088865;28;3982;-36
2021/05/14 01:53:07;;;;;;;;;;;;;;;20.96;55.11;99919.81;2087240;28;3839;-36
2021/05/14 01:54:08;;;;;;;;;;;;;;;20.97;55.07;99929.16;2088463;28;3882;-35
2021/05/14 01:55:09;;;;;;;;;;;;;;;20.96;55.15;99938.88;2088540;28;4178;-35
2021/05/14 01:56:10;;;;;;;;;;;;;;;20.97;55.28;99914.94;2088482;28;5001;-35
2021/05/14 01:57:12;;;;;;;;;;;;;;;20.96;55.04;99919.81;2088903;28;5247;-38
2021/05/14 01:58:13;;;;;;;;;;;;;;;20.96;55.19;99931.19;2087217;28;3886;-34
2021/05/14 01:59:14;;;;;;;;;;;;;;;20.96;55.06;99922.66;2088721;28;3918;-32
2021/05/14 02:00:16;;;;;;;;;;;;;;;20.97;55.03;99929.16;2089052;28;4046;-35
2021/05/14 02:01:17;;;;;;;;;;;;;;;20.96;55.10;99922.66;2089071;28;4047;-33
2021/05/14 02:02:20;;;;;;;;;;;;;;;20.96;55.24;99930.38;2088869;28;3835;-39
2021/05/14 02:03:21;;;;;;;;;;;;;;;20.96;55.16;99922.66;2087685;28;4201;-37
2021/05/14 02:04:22;;;;;;;;;;;;;;;20.96;55.16;99918.97;2087215;28;4036;-36
2021/05/14 02:05:24;;;;;;;;;;;;;;;20.96;55.18;99914.13;2089117;28;4054;-31
2021/05/14 02:06:25;;;;;;;;;;;;;;;20.97;55.20;99917.78;2088079;28;3892;-35
2021/05/14 02:07:26;;;;;;;;;;;;;;;20.96;55.07;99922.66;2087582;28;4278;-38
2021/05/14 02:08:27;;;;;;;;;;;;;;;20.96;55.04;99913.31;2088599;28;4191;-34
2021/05/14 02:09:28;;;;;;;;;;;;;;;20.97;55.12;99914.94;2088860;28;3888;-33
2021/05/14 02:10:30;;;;;;;;;;;;;;;20.96;55.15;99919.81;2087941;28;4041;-35
2021/05/14 02:11:31;;;;;;;;;;;;;;;20.96;55.01;99919.81;2089049;28;3869;-35
2021/05/14 02:12:32;;;;;;;;;;;;;;;20.97;55.04;99914.94;2087981;28;4074;-37
2021/05/14 02:13:33;;;;;;;;;;;;;;;20.96;55.00;99919.81;2089084;28;4096;-37
2021/05/14 02:14:34;;;;;;;;;;;;;;;20.96;55.03;99911.28;2087580;28;3881;-36
2021/05/14 02:15:36;;;;;;;;;;;;;;;20.96;55.20;99916.97;2088515;28;4048;-38
2021/05/14 02:16:37;;;;;;;;;;;;;;;20.96;55.06;99913.31;2089033;28;4077;-36
2021/05/14 02:17:38;;;;;;;;;;;;;;;20.96;55.20;99910.47;2088512;28;4074;-40
2021/05/14 02:18:39;;;;;;;;;;;;;;;20.96;55.10;99914.13;2087843;28;4038;-35
2021/05/14 02:19:41;;;;;;;;;;;;;;;20.97;55.02;99914.94;2088713;28;3894;-36
2021/05/14 02:20:42;;;;;;;;;;;;;;;20.96;55.19;99911.28;2087577;28;4043;-36
2021/05/14 02:21:43;;;;;;;;;;;;;;;20.96;55.17;99908.44;2088668;28;4072;-37
2021/05/14 02:22:45;;;;;;;;;;;;;;;20.97;54.97;99912.09;2087524;28;4129;-35
2021/05/14 02:23:46;;;;;;;;;;;;;;;20.97;55.16;99912.09;2088307;28;4015;-34
2021/05/14 02:24:49;;;;;;;;;;;;;;;20.96;55.27;99908.44;2088686;28;4015;-33
2021/05/14 02:25:51;;;;;;;;;;;;;;;20.97;55.20;99909.25;2088597;28;4019;-36
2021/05/14 02:26:52;;;;;;;;;;;;;;;20.96;55.22;99910.47;2088092;28;3877;-31
2021/05/14 02:27:53;;;;;;;;;;;;;;;20.96;55.17;99907.63;2088387;28;3854;-32
2021/05/14 02:28:54;;;;;;;;;;;;;;;20.96;55.00;99907.63;2088307;28;4957;-34
2021/05/14 02:29:56;;;;;;;;;;;;;;;20.96;55.19;99908.44;2088504;28;3853;-35
2021/05/14 02:30:57;;;;;;;;;;;;;;;20.96;55.17;99908.44;2087328;28;4167;-39
2021/05/14 02:31:58;;;;;;;;;;;;;;;20.97;55.06;99909.25;2087433;28;4047;-34
2021/05/14 02:33:01;;;;;;;;;;;;;;;20.96;55.05;99907.63;2088004;28;3830;-34
2021/05/14 02:34:02;;;;;;;;;;;;;;;20.96;55.26;99911.28;2088401;28;3841;-36
2021/05/14 02:35:03;;;;;;;;;;;;;;;20.96;55.12;99913.31;2088331;28;4014;-35
2021/05/14 02:36:04;;;;;;;;;;;;;;;20.96;55.15;99913.31;2087593;28;3969;-35
2021/05/14 02:37:05;;;;;;;;;;;;;;;20.96;55.15;99910.47;2088434;28;4029;-36
2021/05/14 02:38:07;;;;;;;;;;;;;;;20.96;55.15;99916.16;2087264;28;4021;-33
2021/05/14 02:39:08;;;;;;;;;;;;;;;20.96;55.17;99913.31;2088521;28;3802;-33
2021/05/14 02:40:09;;;;;;;;;;;;;;;20.97;55.06;99912.09;2087967;28;4030;-38
2021/05/14 02:41:11;;;;;;;;;;;;;;;20.96;55.18;99914.13;2087348;28;3822;-36
2021/05/14 02:42:12;;;;;;;;;;;;;;;20.96;55.10;99907.63;2087746;28;5701;-33
2021/05/14 02:43:14;;;;;;;;;;;;;;;20.97;55.13;99909.25;2085906;28;4066;-32
2021/05/14 02:44:15;;;;;;;;;;;;;;;20.97;55.08;99912.09;2087982;28;4978;-37
2021/05/14 02:45:16;;;;;;;;;;;;;;;20.97;55.17;99917.78;2087329;28;3917;-36
2021/05/14 02:46:17;;;;;;;;;;;;;;;20.96;55.36;99911.28;2087633;28;4084;-36
2021/05/14 02:47:19;;;;;;;;;;;;;;;20.96;55.21;99908.44;2088189;28;3855;-36
2021/05/14 02:48:20;;;;;;;;;;;;;;;20.97;55.29;99921.44;2088060;28;3944;-32
2021/05/14 02:49:21;;;;;;;;;;;;;;;20.97;55.38;99912.09;2088602;28;4027;-32
2021/05/14 02:50:23;;;;;;;;;;;;;;;20.98;55.36;99913.72;2088226;28;4094;-36
2021/05/14 02:51:24;;;;;;;;;;;;;;;20.97;55.51;99912.91;2088285;28;4020;-33
2021/05/14 02:52:25;;;;;;;;;;;;;;;20.98;55.34;99916.56;2088057;28;3889;-35
2021/05/14 02:53:26;;;;;;;;;;;;;;;20.99;55.51;99919.06;2087281;28;4028;-32
2021/05/14 02:54:27;;;;;;;;;;;;;;;20.98;55.64;99917.41;2088309;28;4046;-36
2021/05/14 02:55:29;;;;;;;;;;;;;;;20.99;55.56;99919.06;2087671;28;3879;-33
2021/05/14 02:56:30;;;;;;;;;;;;;;;20.99;55.70;99912.53;2087992;28;3885;-36
2021/05/14 02:57:31;;;;;;;;;;;;;;;20.99;55.62;99919.06;2088071;28;4108;-31
2021/05/14 02:58:32;;;;;;;;;;;;;;;21.00;55.58;99914.19;2088244;28;4034;-36
2021/05/14 02:59:34;;;;;;;;;;;;;;;21.00;55.76;99915.00;2088064;28;4049;-32
2021/05/14 03:00:40;;;;;;;;;;;;;;;21.00;55.67;99914.19;2087882;28;3953;-36
2021/05/14 03:01:41;;;;;;;;;;;;;;;21.00;55.77;99917.03;2087840;28;3891;-32
2021/05/14 03:02:42;;;;;;;;;;;;;;;21.00;55.93;99917.03;2088618;28;4049;-33
2021/05/14 03:03:43;;;;;;;;;;;;;;;21.00;56.03;99917.84;2086418;28;4074;-34
2021/05/14 03:04:45;;;;;;;;;;;;;;;21.00;56.07;99920.69;2088049;28;3865;-34
2021/05/14 03:05:46;;;;;;;;;;;;;;;21.00;56.12;99912.16;2088689;28;4103;-34
2021/05/14 03:06:47;;;;;;;;;;;;;;;21.00;56.09;99919.88;2087712;28;4244;-35
2021/05/14 03:07:48;;;;;;;;;;;;;;;21.00;56.24;99919.88;2088439;28;3841;-37
2021/05/14 03:08:49;;;;;;;;;;;;;;;21.00;56.15;99917.03;2087517;28;3768;-37
2021/05/14 03:09:51;;;;;;;;;;;;;;;21.01;56.27;99921.53;2087652;28;3926;-32
2021/05/14 03:10:52;;;;;;;;;;;;;;;21.01;56.33;99918.69;2088608;28;3855;-36
2021/05/14 03:11:53;;;;;;;;;;;;;;;21.01;56.39;99921.53;2087973;28;3880;-37
2021/05/14 03:12:55;;;;;;;;;;;;;;;21.01;56.20;99918.69;2087000;28;4023;-33
2021/05/14 03:13:56;;;;;;;;;;;;;;;21.01;56.33;99922.34;2087978;28;3989;-35
2021/05/14 03:14:58;;;;;;;;;;;;;;;21.01;56.48;99918.69;2087305;28;3987;-34
2021/05/14 03:15:59;;;;;;;;;;;;;;;21.01;56.36;99922.34;2088206;28;4043;-36
2021/05/14 03:17:00;;;;;;;;;;;;;;;21.01;56.50;99907.31;2087997;28;4117;-34
2021/05/14 03:18:02;;;;;;;;;;;;;;;21.01;56.49;99921.53;2087960;28;4189;-32
2021/05/14 03:19:03;;;;;;;;;;;;;;;21.01;56.42;99913.81;2087586;28;4020;-33
2021/05/14 03:20:04;;;;;;;;;;;;;;;21.00;56.41;99919.88;2087947;28;3903;-34
2021/05/14 03:21:05;;;;;;;;;;;;;;;21.00;56.23;99908.50;2088269;28;3969;-34
2021/05/14 03:22:07;;;;;;;;;;;;;;;21.00;56.25;99914.19;2088324;28;4020;-36
2021/05/14 03:23:08;;;;;;;;;;;;;;;21.00;56.18;99909.31;2088292;28;3980;-37
2021/05/14 03:24:09;;;;;;;;;;;;;;;21.01;56.40;99913.00;2087874;28;4232;-36
2021/05/14 03:25:11;;;;;;;;;;;;;;;21.00;56.25;99914.19;2087104;28;4033;-37
2021/05/14 03:26:12;;;;;;;;;;;;;;;21.01;56.21;99910.97;2087938;28;4026;-35
2021/05/14 03:27:13;;;;;;;;;;;;;;;21.00;56.29;99920.69;2087434;28;3845;-39
2021/05/14 03:28:15;;;;;;;;;;;;;;;21.01;56.28;99915.84;2087832;28;4059;-36
2021/05/14 03:29:16;;;;;;;;;;;;;;;21.01;56.26;99918.69;2088092;28;4057;-32
2021/05/14 03:30:17;;;;;;;;;;;;;;;21.01;56.50;99915.84;2087948;28;4101;-37
2021/05/14 03:31:18;;;;;;;;;;;;;;;21.00;56.28;99922.72;2088387;28;4094;-35
2021/05/14 03:32:20;;;;;;;;;;;;;;;21.00;56.22;99920.69;2087809;28;4029;-33
2021/05/14 03:33:21;;;;;;;;;;;;;;;21.01;56.21;99910.16;2088003;28;3866;-35
2021/05/14 03:34:22;;;;;;;;;;;;;;;21.00;56.23;99915.00;2087552;28;4086;-31
2021/05/14 03:35:23;;;;;;;;;;;;;;;21.00;56.33;99919.88;2087630;28;4111;-34
2021/05/14 03:36:25;;;;;;;;;;;;;;;21.00;56.15;99915.00;2087711;28;3889;-32
2021/05/14 03:37:26;;;;;;;;;;;;;;;21.01;56.11;99915.84;2087607;28;4061;-34
2021/05/14 03:38:33;;;;;;;;;;;;;;;21.00;56.30;99919.88;2087483;28;4153;-33
2021/05/14 03:39:44;;;;;;;;;;;;;;;21.02;56.32;99917.47;2087652;28;3891;-33
2021/05/14 03:40:46;;;;;;;;;;;;;;;21.00;56.44;99917.84;2088176;28;3844;-32
2021/05/14 03:41:53;;;;;;;;;;;;;;;21.00;56.27;99920.69;2088377;28;4000;-34
2021/05/14 03:42:55;;;;;;;;;;;;;;;21.01;56.63;99921.53;2089322;28;4106;-32
2021/05/14 03:43:56;;;;;;;;;;;;;;;21.00;56.32;99920.69;2088882;28;4089;-33
2021/05/14 03:44:57;;;;;;;;;;;;;;;21.01;56.49;99925.19;2089129;28;4063;-33
2021/05/14 03:45:58;;;;;;;;;;;;;;;21.01;56.40;99928.03;2089151;28;4060;-34
2021/05/14 03:47:00;;;;;;;;;;;;;;;21.01;56.48;99921.53;2089662;28;3977;-34
2021/05/14 03:48:01;;;;;;;;;;;;;;;21.01;56.27;99921.53;2088759;28;4183;-34
2021/05/14 03:49:02;;;;;;;;;;;;;;;21.00;56.34;99929.22;2089638;28;4031;-37
2021/05/14 03:50:03;;;;;;;;;;;;;;;21.01;56.51;99930.88;2090115;28;3803;-37
2021/05/14 03:51:05;;;;;;;;;;;;;;;21.02;56.37;99928.84;2090013;28;4000;-35
2021/05/14 03:52:06;;;;;;;;;;;;;;;21.02;56.40;99926.00;2089656;28;3872;-37
2021/05/14 03:53:07;;;;;;;;;;;;;;;21.01;56.54;99927.22;2089255;28;4002;-35
2021/05/14 03:54:08;;;;;;;;;;;;;;;21.01;56.34;99921.53;2089292;28;3960;-33
2021/05/14 03:55:10;;;;;;;;;;;;;;;21.01;56.36;99928.03;2089502;28;4088;-34
2021/05/14 03:56:11;;;;;;;;;;;;;;;21.01;56.54;99928.03;2089792;28;4030;-31
2021/05/14 03:57:13;;;;;;;;;;;;;;;21.01;56.56;99928.03;2088994;28;4940;-35
2021/05/14 03:58:14;;;;;;;;;;;;;;;21.01;56.33;99936.56;2088391;28;4069;-35
2021/05/14 03:59:16;;;;;;;;;;;;;;;21.02;56.47;99931.69;2089647;28;4036;-35
2021/05/14 04:00:17;;;;;;;;;;;;;;;21.01;56.40;99930.06;2089167;28;4031;-37
2021/05/14 04:01:20;;;;;;;;;;;;;;;21.02;56.44;99932.50;2089485;28;4111;-35
2021/05/14 04:02:21;;;;;;;;;;;;;;;21.02;56.55;99937.38;2088735;28;4214;-31
2021/05/14 04:03:22;;;;;;;;;;;;;;;21.02;56.44;99940.22;2088779;28;3924;-29
2021/05/14 04:04:24;;;;;;;;;;;;;;;21.02;56.50;99931.69;2088558;28;3954;-33
2021/05/14 04:05:25;;;;;;;;;;;;;;;21.02;56.48;99931.69;2089396;28;4042;-32
2021/05/14 04:06:27;;;;;;;;;;;;;;;21.02;56.62;99941.03;2089783;28;4260;-36
2021/05/14 04:07:29;;;;;;;;;;;;;;;21.02;56.50;99934.53;2088932;28;4004;-33
2021/05/14 04:08:30;;;;;;;;;;;;;;;21.02;56.63;99943.06;2088755;28;4064;-33
2021/05/14 04:09:33;;;;;;;;;;;;;;;21.02;56.53;99943.06;2089857;28;4024;-34
2021/05/14 04:14:31;;;;;;;;;;;;;;;21.02;56.46;99941.03;2089362;28;3822;-31
2021/05/14 04:15:53;;;;;;;;;;;;;;;21.01;56.63;99941.44;2089165;28;4681;-37
2021/05/14 04:16:54;;;;;;;;;;;;;;;21.02;56.63;99938.19;2088785;28;3885;-32
2021/05/14 04:17:55;;;;;;;;;;;;;;;21.02;56.58;99928.84;2089039;28;4028;-35
2021/05/14 04:18:56;;;;;;;;;;;;;;;21.01;56.71;99928.03;2089632;28;4041;-32
2021/05/14 04:19:59;;;;;;;;;;;;;;;21.02;56.67;99941.03;2088718;28;4063;-38
2021/05/14 04:21:00;;;;;;;;;;;;;;;21.02;56.72;99938.19;2088807;28;3876;-35
2021/05/14 04:22:03;;;;;;;;;;;;;;;21.02;56.61;99940.22;2087798;28;4062;-33
2021/05/14 04:23:04;;;;;;;;;;;;;;;21.02;56.68;99941.03;2089168;28;3818;-32
2021/05/14 04:24:05;;;;;;;;;;;;;;;21.02;56.53;99946.72;2089019;28;4295;-36
2021/05/14 04:25:07;;;;;;;;;;;;;;;21.02;56.39;99938.19;2088912;28;4110;-32
2021/05/14 04:26:08;;;;;;;;;;;;;;;21.03;56.49;99941.88;2089495;28;4006;-35
2021/05/14 04:27:10;;;;;;;;;;;;;;;21.01;56.49;99939.41;2089617;28;3834;-38
2021/05/14 04:28:11;;;;;;;;;;;;;;;21.02;56.51;99941.03;2089000;28;4004;-34
2021/05/14 04:29:13;;;;;;;;;;;;;;;21.01;56.64;99930.88;2089154;28;4463;-29
2021/05/14 04:30:14;;;;;;;;;;;;;;;21.03;56.43;99933.31;2088935;28;3999;-35
2021/05/14 04:31:15;;;;;;;;;;;;;;;21.03;56.46;99941.88;2089320;28;4084;-32
2021/05/14 04:32:16;;;;;;;;;;;;;;;21.03;56.61;99945.53;2088386;28;4058;-33
2021/05/14 04:33:18;;;;;;;;;;;;;;;21.03;56.60;99939.03;2088003;28;4071;-31
2021/05/14 04:34:19;;;;;;;;;;;;;;;21.03;56.58;99944.72;2088944;28;4010;-35
2021/05/14 04:35:21;;;;;;;;;;;;;;;21.02;56.62;99941.03;2089522;28;4020;-35
2021/05/14 04:36:23;;;;;;;;;;;;;;;21.03;56.47;99942.69;2089272;28;4016;-33
2021/05/14 04:37:24;;;;;;;;;;;;;;;21.02;56.66;99943.06;2089204;28;3906;-35
2021/05/14 04:38:25;;;;;;;;;;;;;;;21.02;56.57;99943.06;2089123;28;3898;-36
2021/05/14 04:39:27;;;;;;;;;;;;;;;21.02;56.48;99940.22;2088615;28;4080;-34
2021/05/14 04:40:28;;;;;;;;;;;;;;;21.02;56.49;99940.22;2088994;28;4160;-36
2021/05/14 04:41:29;;;;;;;;;;;;;;;21.02;56.54;99945.91;2089485;28;4043;-37
2021/05/14 04:42:30;;;;;;;;;;;;;;;21.02;56.53;99946.72;2088036;28;3878;-35
2021/05/14 04:43:31;;;;;;;;;;;;;;;21.02;56.57;99951.59;2088859;28;4028;-36
2021/05/14 04:44:33;;;;;;;;;;;;;;;21.01;56.46;99939.41;2087798;28;4037;-37
2021/05/14 04:45:36;;;;;;;;;;;;;;;21.02;56.51;99941.03;2088150;28;4083;-36
2021/05/14 04:46:37;;;;;;;;;;;;;;;21.02;56.54;99949.56;2089376;28;4073;-34
2021/05/14 04:47:38;;;;;;;;;;;;;;;21.03;56.47;99954.06;2088644;28;3850;-37
2021/05/14 04:48:40;;;;;;;;;;;;;;;21.03;56.45;99947.53;2088953;28;3903;-37
2021/05/14 04:49:41;;;;;;;;;;;;;;;21.02;56.56;99949.56;2088219;28;4048;-31
2021/05/14 04:50:43;;;;;;;;;;;;;;;21.03;56.67;99941.88;2089356;28;3898;-35
2021/05/14 04:51:44;;;;;;;;;;;;;;;21.03;56.67;99941.88;2089281;28;3862;-31
2021/05/14 04:52:45;;;;;;;;;;;;;;;21.03;56.74;99947.53;2088102;28;3994;-32
2021/05/14 04:53:47;;;;;;;;;;;;;;;21.02;56.63;99943.88;2088651;28;4018;-32
2021/05/14 04:54:48;;;;;;;;;;;;;;;21.02;56.69;99951.59;2088444;28;3876;-31
2021/05/14 04:55:49;;;;;;;;;;;;;;;21.02;56.66;99941.03;2088581;28;3988;-34
2021/05/14 04:56:50;;;;;;;;;;;;;;;21.02;56.50;99949.56;2088027;28;3849;-33
2021/05/14 04:57:52;;;;;;;;;;;;;;;21.02;56.57;99948.75;2087148;28;4050;-33
2021/05/14 04:58:53;;;;;;;;;;;;;;;21.02;56.68;99941.03;2088364;28;3849;-37
2021/05/14 04:59:54;;;;;;;;;;;;;;;21.02;56.57;99946.72;2088626;28;4213;-33
2021/05/14 05:00:55;;;;;;;;;;;;;;;21.02;56.52;99946.72;2089163;28;4030;-34
2021/05/14 05:01:57;;;;;;;;;;;;;;;21.02;56.60;99941.03;2088664;28;3971;-37
2021/05/14 05:02:59;;;;;;;;;;;;;;;21.02;56.48;99945.91;2089081;28;3822;-37
2021/05/14 05:04:00;;;;;;;;;;;;;;;21.02;56.57;99945.91;2088877;28;4016;-32
2021/05/14 05:05:01;;;;;;;;;;;;;;;21.02;56.68;99943.88;2088760;28;4008;-35
2021/05/14 05:06:02;;;;;;;;;;;;;;;21.03;56.49;99947.53;2089448;28;3995;-35
2021/05/14 05:07:04;;;;;;;;;;;;;;;21.03;56.54;99947.53;2088763;28;3910;-33
2021/05/14 05:08:05;;;;;;;;;;;;;;;21.03;56.62;99956.06;2088709;28;3987;-35
2021/05/14 05:09:06;;;;;;;;;;;;;;;21.03;56.49;99950.41;2089040;28;3927;-34
2021/05/14 05:10:07;;;;;;;;;;;;;;;21.02;56.62;99954.44;2088439;28;4041;-33
2021/05/14 05:11:08;;;;;;;;;;;;;;;21.03;56.57;99958.94;2089468;28;6217;-32
2021/05/14 05:12:12;;;;;;;;;;;;;;;21.03;56.51;99956.06;2088115;28;3963;-36
2021/05/14 05:13:14;;;;;;;;;;;;;;;21.02;56.42;99954.44;2088291;28;4776;-35
2021/05/14 05:14:17;;;;;;;;;;;;;;;21.02;56.68;99955.25;2089158;28;3856;-33
2021/05/14 05:15:18;;;;;;;;;;;;;;;21.02;56.63;99954.44;2088231;28;3874;-34
2021/05/14 05:16:19;;;;;;;;;;;;;;;21.03;56.62;99947.53;2087970;28;4052;-38
2021/05/14 05:17:21;;;;;;;;;;;;;;;21.03;56.46;99956.06;2088974;28;4046;-38
2021/05/14 05:18:22;;;;;;;;;;;;;;;21.02;56.55;99949.56;2087715;28;4066;-33
2021/05/14 05:19:24;;;;;;;;;;;;;;;21.03;56.47;99953.25;2088999;28;4065;-33
2021/05/14 05:20:25;;;;;;;;;;;;;;;21.03;56.53;99950.41;2089314;28;4045;-34
2021/05/14 05:21:26;;;;;;;;;;;;;;;21.02;56.54;99952.41;2087866;28;4034;-34
2021/05/14 05:22:27;;;;;;;;;;;;;;;21.03;56.63;99953.25;2089159;28;4072;-31
2021/05/14 05:23:29;;;;;;;;;;;;;;;21.03;56.52;99953.25;2088544;28;4262;-35
2021/05/14 05:24:30;;;;;;;;;;;;;;;21.02;56.47;99958.09;2089179;28;3892;-36
2021/05/14 05:25:31;;;;;;;;;;;;;;;21.02;56.39;99955.25;2089182;28;3878;-33
2021/05/14 05:26:32;;;;;;;;;;;;;;;21.02;56.61;99962.97;2088043;28;4267;-36
2021/05/14 05:27:34;;;;;;;;;;;;;;;21.02;56.60;99958.09;2087948;28;3897;-34
2021/05/14 05:28:35;;;;;;;;;;;;;;;21.02;56.58;99963.78;2087073;28;5147;-33